Time;durP1;ratioP1;P1;durP2;ratioP2;P2;SDS_P1;SDS_P2;PMS_P1;PMS_P2;Temp;Humidity;BMP_temperature;BMP_pressure;BME280_temperature;BME280_humidity;BME280_pressure;Samples;Min_cycle;Max_cycle;Signal;HPM_P1;HPM_P2
2021/07/16 00:00:32;;;;;;;18.30;8.63;;;;;;;22.53;66.65;100513.66;5106983;28;20052;-80
2021/07/16 00:03:00;;;;;;;18.08;8.60;;;;;;;22.57;66.18;100517.34;5105921;28;20055;-80
2021/07/16 00:05:28;;;;;;;14.65;8.10;;;;;;;22.50;65.68;100506.75;5106918;28;20354;-80
2021/07/16 00:07:58;;;;;;;15.23;8.50;;;;;;;22.51;65.49;100513.28;5106085;28;20058;-80
2021/07/16 00:10:28;;;;;;;15.82;7.10;;;;;;;22.42;65.80;100518.47;5106913;28;20118;-80
2021/07/16 00:12:55;;;;;;;19.98;6.80;;;;;;;22.39;64.99;100520.06;5105451;28;20052;-80
2021/07/16 00:15:23;;;;;;;13.45;6.68;;;;;;;22.45;64.70;100507.16;5106413;28;20358;-81
2021/07/16 00:17:51;;;;;;;13.60;7.32;;;;;;;22.38;65.20;100503.44;5107138;28;20060;-81
2021/07/16 00:20:20;;;;;;;13.98;6.82;;;;;;;22.49;64.08;100510.81;5106641;28;20044;-80
2021/07/16 00:22:47;;;;;;;11.75;7.03;;;;;;;22.34;65.19;100509.06;5106279;28;20044;-80
2021/07/16 00:25:15;;;;;;;17.75;7.32;;;;;;;22.44;65.22;100510.38;5105112;28;20056;-81
2021/07/16 00:27:42;;;;;;;17.25;7.70;;;;;;;22.48;64.94;100509.19;5105884;28;20044;-80
2021/07/16 00:30:11;;;;;;;15.27;7.13;;;;;;;22.47;64.97;100509.59;5106893;28;20056;-80
2021/07/16 00:32:39;;;;;;;13.32;6.80;;;;;;;22.47;64.38;100506.75;5106254;28;20445;-81
2021/07/16 00:35:08;;;;;;;13.48;7.38;;;;;;;22.46;64.64;100503.09;5105773;28;20059;-80
2021/07/16 00:37:39;;;;;;;15.27;7.00;;;;;;;22.44;64.44;100513.22;5104609;28;20055;-81
2021/07/16 00:40:09;;;;;;;15.02;7.30;;;;;;;22.30;64.98;100505.44;5105209;28;20051;-80
2021/07/16 00:42:37;;;;;;;18.35;7.63;;;;;;;22.23;65.23;100506.16;5103989;28;20052;-80
2021/07/16 00:45:06;;;;;;;12.88;7.05;;;;;;;22.29;65.22;100509.44;5103349;28;20052;-80
2021/07/16 00:47:34;;;;;;;18.60;7.72;;;;;;;22.36;65.18;100505.84;5104502;28;20059;-80
2021/07/16 00:50:01;;;;;;;14.82;7.43;;;;;;;22.32;65.08;100508.66;5104670;28;20047;-81
2021/07/16 00:52:29;;;;;;;14.18;7.20;;;;;;;22.40;64.50;100510.34;5103358;28;20059;-81
2021/07/16 00:54:58;;;;;;;13.30;7.85;;;;;;;22.49;64.67;100512.84;5104463;28;20056;-80
2021/07/16 00:57:27;;;;;;;14.88;7.50;;;;;;;22.48;64.50;100512.03;5104127;28;20056;-80
2021/07/16 00:59:54;;;;;;;16.88;7.50;;;;;;;22.55;64.19;100516.94;5103871;28;20075;-80
2021/07/16 01:02:22;;;;;;;16.20;7.88;;;;;;;22.55;64.38;100531.13;5104065;28;20052;-79
2021/07/16 01:04:50;;;;;;;15.85;7.63;;;;;;;22.59;64.45;100528.31;5104979;28;20067;-80
2021/07/16 01:07:17;;;;;;;16.83;8.18;;;;;;;22.54;64.79;100529.50;5103718;28;20051;-80
2021/07/16 01:09:46;;;;;;;12.68;7.22;;;;;;;22.53;64.28;100524.22;5104084;28;20052;-81
2021/07/16 01:12:15;;;;;;;15.25;7.70;;;;;;;22.57;63.71;100528.69;5104912;28;20054;-81
2021/07/16 01:14:43;;;;;;;12.25;6.82;;;;;;;22.56;63.58;100534.78;5105141;28;20527;-81
2021/07/16 01:17:11;;;;;;;12.93;7.00;;;;;;;22.52;63.76;100528.28;5104727;28;20052;-80
2021/07/16 01:19:51;;;;;;;16.58;8.90;;;;;;;22.41;63.68;100529.00;5104408;28;20058;-81
2021/07/16 01:22:19;;;;;;;12.27;6.57;;;;;;;22.49;63.00;100524.22;5103760;28;20493;-80
2021/07/16 01:24:48;;;;;;;11.32;6.70;;;;;;;22.44;62.55;100524.56;5102254;28;20512;-80
2021/07/16 01:27:18;;;;;;;13.15;6.72;;;;;;;22.34;63.17;100520.44;5102631;28;20052;-81
2021/07/16 01:29:47;;;;;;;14.20;6.78;;;;;;;22.33;62.69;100521.66;5099020;28;20397;-80
2021/07/16 01:32:15;;;;;;;16.40;7.00;;;;;;;22.35;63.73;100524.09;5101127;28;20071;-80
2021/07/16 01:34:43;;;;;;;14.75;7.05;;;;;;;22.28;63.25;100525.66;5103048;28;20126;-80
2021/07/16 01:37:11;;;;;;;15.38;7.20;;;;;;;22.22;63.48;100521.53;5103169;28;20048;-81
2021/07/16 01:39:39;;;;;;;16.23;7.68;;;;;;;22.27;63.50;100532.53;5103107;28;20456;-80
2021/07/16 01:42:09;;;;;;;14.15;6.75;;;;;;;22.34;63.46;100528.94;5102745;28;20048;-80
2021/07/16 01:44:38;;;;;;;16.13;9.02;;;;;;;22.36;63.32;100535.03;5102506;28;20457;-79
2021/07/16 01:47:06;;;;;;;15.87;9.10;;;;;;;22.27;63.56;100535.38;5103430;28;20055;-81
2021/07/16 01:49:36;;;;;;;14.60;9.88;;;;;;;22.25;63.77;100546.31;5103029;28;20067;-80
2021/07/16 01:52:05;;;;;;;22.88;12.40;;;;;;;22.14;64.09;100545.38;5102365;28;20059;-80
2021/07/16 01:54:32;;;;;;;20.23;11.53;;;;;;;22.14;63.88;100547.41;5101713;28;20056;-80
2021/07/16 01:57:00;;;;;;;16.80;10.02;;;;;;;22.04;64.06;100554.59;5101594;28;20052;-80
2021/07/16 01:59:32;;;;;;;15.90;9.52;;;;;;;22.03;63.49;100558.66;5100623;28;20065;-79
2021/07/16 02:02:00;;;;;;;16.35;8.93;;;;;;;22.10;62.93;100553.84;5102608;28;20409;-79
2021/07/16 02:04:29;;;;;;;18.58;8.40;;;;;;;22.11;62.88;100560.34;5102208;28;20044;-80
2021/07/16 02:06:59;;;;;;;15.48;9.10;;;;;;;22.03;63.25;100564.34;5101532;28;20044;-79
2021/07/16 02:09:27;;;;;;;14.02;7.82;;;;;;;22.00;62.74;100565.91;5102031;28;20401;-79
2021/07/16 02:11:57;;;;;;;14.65;7.32;;;;;;;21.85;63.88;100570.63;5102061;28;20059;-80
2021/07/16 02:14:25;;;;;;;12.18;7.00;;;;;;;21.93;63.55;100576.38;5100416;28;20051;-79
2021/07/16 02:16:55;;;;;;;14.95;6.63;;;;;;;21.87;63.39;100573.06;5102346;28;20062;-79
2021/07/16 02:19:25;;;;;;;15.35;6.28;;;;;;;21.80;63.07;100578.69;5102071;28;20064;-79
2021/07/16 02:21:53;;;;;;;15.77;7.20;;;;;;;21.81;63.19;100581.13;5102127;28;20054;-79
2021/07/16 02:24:21;;;;;;;11.48;6.75;;;;;;;21.85;63.67;100576.28;5100514;28;20059;-80
2021/07/16 02:26:48;;;;;;;14.98;7.32;;;;;;;21.93;63.18;100576.38;5102078;28;20485;-80
2021/07/16 02:29:16;;;;;;;14.70;7.80;;;;;;;21.97;63.10;100582.91;5103224;28;20469;-79
2021/07/16 02:31:43;;;;;;;19.42;8.27;;;;;;;21.94;63.31;100578.00;5102055;28;20495;-79
2021/07/16 02:34:12;;;;;;;15.65;7.50;;;;;;;21.97;63.64;100577.25;5102310;28;20056;-81
2021/07/16 02:36:40;;;;;;;15.05;8.30;;;;;;;21.94;63.65;100583.69;5102055;28;20059;-81
2021/07/16 02:39:07;;;;;;;17.85;8.98;;;;;;;21.97;63.83;100585.75;5102135;28;20062;-80
2021/07/16 02:41:36;;;;;;;14.32;8.30;;;;;;;21.93;64.45;100580.03;5101520;28;20044;-80
2021/07/16 02:44:03;;;;;;;15.85;10.07;;;;;;;21.94;64.76;100583.69;5101814;28;20048;-80
2021/07/16 02:46:31;;;;;;;16.98;10.48;;;;;;;21.91;65.53;100578.78;5102025;28;20059;-80
2021/07/16 02:48:58;;;;;;;17.38;10.15;;;;;;;21.93;65.49;100599.88;5101668;28;20071;-79
2021/07/16 02:51:27;;;;;;;20.00;10.45;;;;;;;21.90;65.82;100597.81;5102087;28;20059;-80
2021/07/16 02:53:55;;;;;;;20.00;12.23;;;;;;;21.86;66.24;100600.63;5100960;28;20436;-80
2021/07/16 02:56:23;;;;;;;20.52;11.50;;;;;;;21.79;66.38;100599.72;5101684;28;20055;-80
2021/07/16 02:58:50;;;;;;;23.95;11.20;;;;;;;21.76;66.43;100598.50;5100305;28;20044;-79
2021/07/16 03:01:17;;;;;;;17.15;11.70;;;;;;;21.72;66.58;100591.97;5095754;28;20044;-79
2021/07/16 03:03:45;;;;;;;17.48;10.18;;;;;;;21.74;66.28;100598.06;5095977;28;20060;-79
2021/07/16 03:06:12;;;;;;;19.63;10.27;;;;;;;21.65;66.47;100603.22;5096577;28;20044;-79
2021/07/16 03:08:41;;;;;;;19.75;10.63;;;;;;;21.56;66.70;100599.88;5095915;28;20044;-78
2021/07/16 03:11:09;;;;;;;18.15;10.85;;;;;;;21.53;67.40;100597.81;5095969;28;20479;-78
2021/07/16 03:13:38;;;;;;;21.88;11.63;;;;;;;21.53;67.56;100597.81;5096183;28;20059;-80
2021/07/16 03:16:05;;;;;;;;;;;;;;;21.47;67.19;100600.16;5096883;28;20044;-79
2021/07/16 03:18:33;;;;;;;15.35;11.10;;;;;;;21.52;67.53;100605.47;5096131;28;19928;-79
2021/07/16 03:21:00;;;;;;;18.23;11.77;;;;;;;21.39;67.78;100607.72;5096584;28;20489;-79
2021/07/16 03:23:28;;;;;;;18.13;10.80;;;;;;;21.22;68.35;100605.47;5090106;28;20056;-80
2021/07/16 03:25:56;;;;;;;18.80;10.73;;;;;;;21.05;68.97;100607.69;5075752;28;20048;-80
2021/07/16 03:28:23;;;;;;;21.17;11.38;;;;;;;20.96;69.00;100595.81;5075098;28;20131;-79
2021/07/16 03:30:51;;;;;;;19.67;11.43;;;;;;;20.86;69.13;100616.31;5075674;28;20060;-80
2021/07/16 03:33:18;;;;;;;19.90;10.43;;;;;;;20.73;69.64;100614.91;5075930;28;20079;-80
2021/07/16 03:35:46;;;;;;;21.58;11.82;;;;;;;20.66;70.02;100613.59;5076009;28;20049;-79
2021/07/16 03:38:13;;;;;;;17.35;9.85;;;;;;;20.72;69.93;100613.25;5076108;28;20052;-79
2021/07/16 03:40:52;;;;;;;17.45;10.85;;;;;;;20.71;69.53;100615.25;5075468;28;20466;-80
2021/07/16 03:43:20;;;;;;;20.60;10.35;;;;;;;20.74;68.99;100622.16;5075830;28;20056;-79
2021/07/16 03:45:48;;;;;;;17.87;10.27;;;;;;;20.71;68.93;100614.44;5075775;28;20063;-79
2021/07/16 03:48:15;;;;;;;15.98;9.93;;;;;;;20.67;68.96;100609.53;5075691;28;20459;-79
2021/07/16 03:50:43;;;;;;;18.38;10.43;;;;;;;20.71;68.84;100614.44;5075522;28;20413;-80
2021/07/16 03:53:10;;;;;;;23.23;10.15;;;;;;;20.72;68.83;100616.06;5076223;28;20048;-80
2021/07/16 03:55:38;;;;;;;19.65;10.18;;;;;;;20.65;69.58;100616.78;5075336;28;20048;-80
2021/07/16 03:58:05;;;;;;;14.43;9.55;;;;;;;20.66;69.29;100621.22;5075494;28;20140;-79
2021/07/16 04:00:34;;;;;;;14.00;9.25;;;;;;;20.71;69.09;100620.13;5074783;28;20053;-79
2021/07/16 04:03:03;;;;;;;12.98;8.77;;;;;;;20.72;68.89;100628.22;5075168;28;20063;-80
2021/07/16 04:05:32;;;;;;;16.20;9.52;;;;;;;20.70;69.16;100629.78;5075400;28;20056;-79
2021/07/16 04:08:03;;;;;;;14.60;9.02;;;;;;;20.70;69.23;100629.78;5075095;28;20052;-80
2021/07/16 04:10:32;;;;;;;14.60;8.85;;;;;;;20.72;69.31;100627.41;5075310;28;20056;-79
2021/07/16 04:13:02;;;;;;;14.63;9.50;;;;;;;20.76;69.00;100636.75;5075419;28;20059;-80
2021/07/16 04:15:29;;;;;;;15.52;9.63;;;;;;;20.80;68.67;100629.16;5075134;28;20052;-80
2021/07/16 04:18:00;;;;;;;12.95;9.05;;;;;;;20.83;67.85;100634.03;5073943;28;20048;-79
2021/07/16 04:20:29;;;;;;;16.63;9.18;;;;;;;20.92;67.49;100631.75;5070249;28;20053;-79
2021/07/16 04:22:58;;;;;;;16.45;9.43;;;;;;;20.94;67.77;100629.38;5077452;28;20052;-80
2021/07/16 04:25:26;;;;;;;17.67;9.77;;;;;;;20.97;67.49;100634.25;5077591;28;20401;-80
2021/07/16 04:27:56;;;;;;;15.02;9.20;;;;;;;20.96;67.34;100635.47;5078599;28;20062;-80
2021/07/16 04:30:25;;;;;;;17.38;9.23;;;;;;;20.96;67.30;100638.31;5073313;28;20071;-80
2021/07/16 04:32:54;;;;;;;12.30;9.05;;;;;;;20.96;67.13;100631.81;5076559;28;20057;-79
2021/07/16 04:35:23;;;;;;;16.13;8.57;;;;;;;20.94;66.69;100623.72;5078303;28;20052;-79
2021/07/16 04:37:51;;;;;;;14.00;9.52;;;;;;;20.95;67.60;100635.84;5078333;28;20049;-80
2021/07/16 04:40:20;;;;;;;14.65;8.32;;;;;;;20.98;66.88;100640.75;5077784;28;20053;-80
2021/07/16 04:42:49;;;;;;;16.58;7.78;;;;;;;20.87;67.12;100640.56;5064960;28;20053;-78
2021/07/16 04:45:17;;;;;;;12.73;8.02;;;;;;;20.78;67.54;100649.34;5078510;28;20040;-79
2021/07/16 04:47:47;;;;;;;14.00;8.38;;;;;;;20.84;67.54;100650.66;5075778;28;20048;-79
2021/07/16 04:50:16;;;;;;;13.75;7.85;;;;;;;20.82;67.38;100644.56;5077600;28;20059;-79
2021/07/16 04:52:48;;;;;;;14.02;7.45;;;;;;;20.81;67.30;100644.91;5078343;28;20048;-79
2021/07/16 04:55:16;;;;;;;12.55;7.10;;;;;;;20.84;67.15;100642.16;5077103;28;20064;-79
2021/07/16 04:57:46;;;;;;;12.02;7.55;;;;;;;20.83;67.33;100642.53;5077854;28;20449;-79
2021/07/16 05:00:15;;;;;;;11.48;7.68;;;;;;;20.82;67.88;100649.41;5077479;28;20072;-79
2021/07/16 05:02:43;;;;;;;15.02;7.57;;;;;;;20.86;67.55;100647.44;5058338;28;20053;-79
2021/07/16 05:05:11;;;;;;;15.45;7.63;;;;;;;20.86;67.91;100642.59;5070891;28;20470;-80
2021/07/16 05:07:39;;;;;;;14.00;8.73;;;;;;;20.93;68.29;100636.22;5077061;28;20044;-80
2021/07/16 05:10:09;;;;;;;15.20;9.70;;;;;;;20.97;67.90;100630.63;5076846;28;20053;-80
2021/07/16 05:12:37;;;;;;;16.20;10.13;;;;;;;21.03;68.07;100634.75;5062108;28;20049;-86
2021/07/16 05:15:06;;;;;;;15.90;9.93;;;;;;;21.09;67.85;100644.56;5074460;28;20057;-80
2021/07/16 05:17:34;;;;;;;13.65;9.48;;;;;;;21.09;67.79;100651.03;5078553;28;20045;-79
2021/07/16 05:20:01;;;;;;;11.10;9.35;;;;;;;21.14;67.51;100652.72;5057704;28;20056;-78
2021/07/16 05:22:31;;;;;;;13.20;9.02;;;;;;;21.24;66.62;100642.75;5059310;28;20417;-80
2021/07/16 05:24:58;;;;;;;16.58;10.48;;;;;;;21.28;66.73;100641.59;5062097;28;20082;-79
2021/07/16 05:27:27;;;;;;;17.98;9.55;;;;;;;21.34;66.75;100644.09;5057881;28;20052;-79
2021/07/16 05:29:54;;;;;;;13.70;9.73;;;;;;;21.41;66.59;100645.00;5057433;28;20504;-79
2021/07/16 05:32:22;;;;;;;14.57;9.90;;;;;;;21.46;65.83;100653.22;5052806;28;20466;-78
2021/07/16 05:34:49;;;;;;;13.45;8.85;;;;;;;21.55;65.76;100650.06;5069488;28;20049;-80
2021/07/16 05:37:17;;;;;;;13.15;8.50;;;;;;;21.58;65.77;100651.31;5066396;28;20044;-80
2021/07/16 05:39:44;;;;;;;12.43;8.60;;;;;;;21.61;65.62;100645.69;5062476;28;20740;-79
2021/07/16 05:42:11;;;;;;;13.00;9.38;;;;;;;21.66;65.46;100648.19;5067419;28;20057;-79
2021/07/16 05:44:40;;;;;;;11.45;8.10;;;;;;;21.72;64.82;100654.34;5057217;28;20052;-79
2021/07/16 05:47:07;;;;;;;14.93;9.05;;;;;;;21.74;65.02;100654.75;5057003;28;20064;-79
2021/07/16 05:49:35;;;;;;;13.73;8.32;;;;;;;21.79;64.78;100662.09;5057565;28;20496;-79
2021/07/16 05:52:02;;;;;;;13.95;8.80;;;;;;;21.86;64.94;100663.03;5068718;28;20049;-79
2021/07/16 05:54:29;;;;;;;11.32;8.48;;;;;;;21.88;64.85;100663.44;5090801;28;20044;-79
2021/07/16 05:56:57;;;;;;;13.93;8.85;;;;;;;21.92;65.13;100660.63;5097792;28;20390;-80
2021/07/16 05:59:24;;;;;;;13.05;8.98;;;;;;;21.93;64.53;100655.81;5096992;28;20063;-79
2021/07/16 06:01:53;;;;;;;11.65;7.95;;;;;;;21.98;63.50;100663.94;5097063;28;20055;-79
2021/07/16 06:04:20;;;;;;;12.27;8.30;;;;;;;22.04;63.42;100668.88;5057465;28;20060;-79
2021/07/16 06:06:50;;;;;;;11.35;7.60;;;;;;;22.06;62.72;100672.16;5063371;28;20052;-79
2021/07/16 06:09:17;;;;;;;;;;;;;;;22.08;62.08;100664.06;5057397;28;20075;-80
2021/07/16 06:11:44;;;;;;;11.90;7.28;;;;;;;22.10;61.82;100672.19;5058002;28;19921;-80
2021/07/16 06:14:11;;;;;;;12.18;7.47;;;;;;;22.01;62.39;100672.50;5057208;28;20492;-80
2021/07/16 06:16:39;;;;;;;11.40;8.23;;;;;;;21.94;62.42;100680.09;5072000;28;20485;-80
2021/07/16 06:19:08;;;;;;;12.98;8.48;;;;;;;22.01;62.19;100680.22;5076635;28;20052;-80
2021/07/16 06:21:35;;;;;;;11.82;7.15;;;;;;;22.01;62.82;100680.22;5075732;28;20062;-80
2021/07/16 06:24:02;;;;;;;12.57;8.88;;;;;;;22.05;61.83;100678.22;5074924;28;20060;-79
2021/07/16 06:26:30;;;;;;;13.60;9.80;;;;;;;22.04;61.89;100679.41;5071903;28;20504;-79
2021/07/16 06:28:57;;;;;;;14.95;11.52;;;;;;;22.12;61.30;100680.31;5076095;28;20052;-81
2021/07/16 06:31:25;;;;;;;15.98;11.93;;;;;;;22.20;61.06;100693.38;5076085;28;20060;-79
2021/07/16 06:33:52;;;;;;;19.65;11.77;;;;;;;22.25;60.99;100693.88;5076050;28;20075;-79
2021/07/16 06:36:21;;;;;;;18.30;12.70;;;;;;;22.26;60.84;100689.84;5076235;28;20504;-80
2021/07/16 06:38:52;;;;;;;17.52;12.90;;;;;;;22.34;60.94;100704.91;5075061;28;20470;-79
2021/07/16 06:41:19;;;;;;;16.52;12.52;;;;;;;22.45;60.26;100705.84;5075226;28;20056;-79
2021/07/16 06:43:49;;;;;;;22.73;12.77;;;;;;;22.59;59.98;100696.63;5075571;28;20052;-79
2021/07/16 06:46:17;;;;;;;15.52;11.40;;;;;;;22.47;59.90;100711.13;5076400;28;20052;-79
2021/07/16 06:48:44;;;;;;;13.10;9.77;;;;;;;22.55;59.24;100704.28;5076027;28;20486;-79
2021/07/16 06:51:11;;;;;;;14.25;9.57;;;;;;;22.65;58.67;100712.09;5075480;28;20048;-80
2021/07/16 06:53:40;;;;;;;13.35;9.38;;;;;;;22.59;59.83;100715.69;5075368;28;20462;-79
2021/07/16 06:56:07;;;;;;;16.65;10.00;;;;;;;22.55;58.65;100715.66;5075087;28;20063;-79
2021/07/16 06:58:35;;;;;;;11.68;7.85;;;;;;;22.41;58.04;100718.38;5075563;28;20056;-79
2021/07/16 07:01:02;;;;;;;13.27;8.18;;;;;;;22.22;58.81;100711.66;5075445;28;20059;-79
2021/07/16 07:03:30;;;;;;;17.05;8.73;;;;;;;22.07;59.92;100718.38;5076380;28;20489;-79
2021/07/16 07:05:57;;;;;;;14.43;7.90;;;;;;;22.26;59.13;100723.88;5076264;28;20060;-80
2021/07/16 07:08:25;;;;;;;13.02;7.88;;;;;;;22.24;59.74;100729.13;5076322;28;20064;-80
2021/07/16 07:10:53;;;;;;;12.45;8.13;;;;;;;22.26;59.49;100723.88;5076387;28;20395;-80
2021/07/16 07:13:21;;;;;;;15.65;7.70;;;;;;;22.22;59.84;100731.50;5076891;28;20052;-81
2021/07/16 07:15:48;;;;;;;15.75;8.25;;;;;;;22.20;60.25;100736.75;5076607;28;20057;-80
2021/07/16 07:18:16;;;;;;;11.88;7.30;;;;;;;22.14;59.69;100729.78;5074198;28;20489;-79
2021/07/16 07:20:44;;;;;;;13.88;7.13;;;;;;;22.02;59.94;100728.03;5074715;28;20055;-80
2021/07/16 07:23:11;;;;;;;11.68;6.97;;;;;;;22.16;59.47;100726.56;5073366;28;20052;-80
2021/07/16 07:25:38;;;;;;;14.32;6.95;;;;;;;22.20;58.83;100733.09;5096240;28;20056;-79
2021/07/16 07:28:07;;;;;;;12.13;7.35;;;;;;;22.23;59.37;100730.31;5096810;28;20059;-80
2021/07/16 07:30:35;;;;;;;13.35;7.22;;;;;;;22.36;58.97;100732.91;5097026;28;20044;-80
2021/07/16 07:33:04;;;;;;;12.27;7.35;;;;;;;22.50;58.55;100739.53;5096974;28;20397;-80
2021/07/16 07:35:32;;;;;;;15.65;7.82;;;;;;;22.67;57.97;100740.91;5096791;28;20461;-81
2021/07/16 07:38:00;;;;;;;16.63;8.35;;;;;;;22.81;57.81;100733.75;5096473;28;20045;-82
2021/07/16 07:40:27;;;;;;;14.18;8.88;;;;;;;22.93;57.93;100727.78;5096780;28;20051;-81
2021/07/16 07:42:55;;;;;;;13.68;8.55;;;;;;;22.98;58.21;100738.78;5095288;28;20818;-79
2021/07/16 07:45:24;;;;;;;16.73;9.13;;;;;;;23.15;57.17;100742.19;5095914;28;20060;-79
2021/07/16 07:47:51;;;;;;;17.15;9.68;;;;;;;23.19;57.11;100737.34;5095757;28;20044;-81
2021/07/16 07:50:20;;;;;;;18.33;9.95;;;;;;;23.30;57.01;100744.72;5090741;28;20052;-81
2021/07/16 07:52:49;;;;;;;16.40;10.25;;;;;;;23.43;56.42;100733.84;5096762;28;20052;-79
2021/07/16 07:55:20;;;;;;;20.27;10.88;;;;;;;23.64;55.62;100736.00;5100061;28;20048;-81
2021/07/16 07:57:54;;;;;;;17.50;10.88;;;;;;;23.81;55.10;100743.06;5095642;28;20056;-78
2021/07/16 08:00:25;;;;;;;18.58;11.13;;;;;;;23.97;53.70;100741.91;5096342;28;20059;-80
2021/07/16 08:02:56;;;;;;;15.10;10.40;;;;;;;23.93;53.63;100741.88;5098874;28;20048;-79
2021/07/16 08:05:23;;;;;;;20.80;11.55;;;;;;;23.84;53.75;100742.25;5099535;28;20063;-80
2021/07/16 08:07:51;;;;;;;18.17;11.23;;;;;;;23.76;54.09;100745.41;5098277;28;20059;-80
2021/07/16 08:10:22;;;;;;;18.02;11.40;;;;;;;23.79;54.06;100756.03;5099101;28;20047;-80
2021/07/16 08:12:50;;;;;;;19.27;10.20;;;;;;;23.91;53.72;100752.84;5099346;28;20503;-79
2021/07/16 08:15:18;;;;;;;17.42;10.43;;;;;;;24.23;52.79;100750.13;5099138;28;20059;-80
2021/07/16 08:17:48;;;;;;;29.17;10.63;;;;;;;24.49;51.67;100748.19;5085091;28;20420;-79
2021/07/16 08:20:16;;;;;;;16.08;9.82;;;;;;;24.66;51.63;100747.41;5099336;28;20052;-79
2021/07/16 08:22:44;;;;;;;17.65;9.90;;;;;;;24.91;51.13;100755.16;5098373;28;20105;-79
2021/07/16 08:25:13;;;;;;;17.35;9.80;;;;;;;24.98;51.30;100763.72;5098046;28;20052;-79
2021/07/16 08:27:41;;;;;;;18.13;9.10;;;;;;;25.02;50.16;100761.69;5098530;28;20397;-80
2021/07/16 08:30:10;;;;;;;16.65;10.70;;;;;;;24.86;50.62;100767.78;5098457;28;20481;-80
2021/07/16 08:32:38;;;;;;;16.77;11.48;;;;;;;24.76;50.75;100777.13;5098832;28;20056;-80
2021/07/16 08:35:08;;;;;;;20.92;11.45;;;;;;;24.59;50.21;100775.88;5098430;28;20115;-81
2021/07/16 08:37:36;;;;;;;13.30;10.45;;;;;;;24.62;51.11;100782.81;5099091;28;20047;-80
2021/07/16 08:40:04;;;;;;;21.25;11.05;;;;;;;24.73;50.58;100779.97;5099081;28;20059;-81
2021/07/16 08:42:33;;;;;;;17.33;10.07;;;;;;;24.76;50.27;100774.28;5098471;28;20464;-81
2021/07/16 08:45:03;;;;;;;20.75;12.65;;;;;;;24.78;50.28;100776.72;5098663;28;20056;-79
2021/07/16 08:47:32;;;;;;;18.15;12.27;;;;;;;24.55;50.40;100782.78;5095326;28;20052;-79
2021/07/16 08:50:01;;;;;;;22.08;13.07;;;;;;;24.43;50.73;100790.44;5099323;28;20047;-81
2021/07/16 08:52:30;;;;;;;21.30;13.38;;;;;;;24.35;50.80;100803.03;5098284;28;20048;-83
2021/07/16 08:55:00;;;;;;;;;;;;;;;24.23;51.36;100811.91;5098625;28;20405;-81
2021/07/16 08:57:29;;;;;;;17.33;11.82;;;;;;;24.12;51.42;100817.56;5097818;28;19943;-80
2021/07/16 08:59:57;;;;;;;19.15;11.20;;;;;;;24.06;51.45;100822.00;5098016;28;20056;-80
2021/07/16 09:02:26;;;;;;;17.48;11.43;;;;;;;23.88;52.12;100825.59;5097174;28;20405;-80
2021/07/16 09:04:59;;;;;;;19.20;11.45;;;;;;;23.82;52.74;100826.34;5097394;28;20532;-80
2021/07/16 09:07:27;;;;;;;17.45;10.27;;;;;;;23.57;53.21;100826.16;5098189;28;20147;-80
2021/07/16 09:10:08;;;;;;;18.70;11.18;;;;;;;23.37;54.67;100832.09;5098335;28;20052;-78
2021/07/16 09:12:37;;;;;;;19.83;13.25;;;;;;;23.33;54.85;100831.25;5096843;28;20496;-81
2021/07/16 09:15:12;;;;;;;21.02;14.50;;;;;;;23.31;54.68;100825.16;5099674;28;20048;-81
2021/07/16 09:17:44;;;;;;;20.40;13.70;;;;;;;23.37;54.67;100837.78;5098239;28;20041;-80
2021/07/16 09:20:23;;;;;;;20.80;12.18;;;;;;;23.27;55.30;100833.63;5098234;28;20056;-80
2021/07/16 09:23:05;;;;;;;;;;;;;;;23.24;55.40;100827.91;5098190;28;20052;-80
2021/07/16 09:25:38;;;;;;;18.88;13.93;;;;;;;23.13;55.70;100835.53;5058180;28;19920;-83
2021/07/16 09:28:05;;;;;;;27.38;20.17;;;;;;;23.03;55.13;100823.66;5055072;28;20045;-80
2021/07/16 09:30:34;;;;;;;23.88;15.98;;;;;;;23.02;54.96;100827.72;5058041;28;20049;-80
2021/07/16 09:33:04;;;;;;;21.20;14.77;;;;;;;23.06;54.92;100825.75;5056614;28;20060;-80
2021/07/16 09:35:37;;;;;;;21.05;13.70;;;;;;;23.18;54.29;100838.84;5057286;28;20082;-80
2021/07/16 09:38:06;;;;;;;21.35;13.57;;;;;;;23.32;54.10;100838.13;5056880;28;20056;-80
2021/07/16 09:40:39;;;;;;;20.83;14.00;;;;;;;23.43;54.84;100849.59;5058000;28;20053;-79
2021/07/16 09:43:14;;;;;;;20.55;13.32;;;;;;;23.49;54.30;100836.66;5056896;28;20508;-80
2021/07/16 09:45:43;;;;;;;21.83;13.98;;;;;;;23.65;53.99;100839.22;5056709;28;20055;-80
2021/07/16 09:48:24;;;;;;;18.23;12.43;;;;;;;23.91;52.80;100823.97;5060538;28;20056;-81
2021/07/16 09:51:10;;;;;;;20.02;11.65;;;;;;;24.33;52.45;100822.53;5077455;28;20474;-82
2021/07/16 09:53:41;;;;;;;19.70;11.52;;;;;;;24.68;51.14;100818.22;5058257;28;20107;-79
2021/07/16 09:56:18;;;;;;;18.70;12.45;;;;;;;24.82;51.10;100820.28;5054925;28;20044;-80
2021/07/16 09:58:45;;;;;;;15.10;11.38;;;;;;;24.71;50.55;100815.41;5056111;28;20049;-81
2021/07/16 10:01:13;;;;;;;17.73;10.32;;;;;;;24.88;49.66;100818.66;5057424;28;20482;-82
2021/07/16 10:03:42;;;;;;;13.93;10.13;;;;;;;24.98;50.04;100828.47;5056896;28;20049;-78
2021/07/16 10:06:13;;;;;;;19.23;10.80;;;;;;;25.08;49.36;100824.81;5056118;28;20052;-79
2021/07/16 10:08:41;;;;;;;14.52;11.23;;;;;;;25.08;48.64;100822.75;5056351;28;20053;-79
2021/07/16 10:11:09;;;;;;;15.60;11.00;;;;;;;25.04;49.19;100824.78;5056549;28;20064;-80
2021/07/16 10:13:41;;;;;;;16.65;11.32;;;;;;;24.98;49.69;100817.06;5056075;28;20069;-82
2021/07/16 10:16:08;;;;;;;16.33;9.35;;;;;;;24.85;49.97;100819.47;5048481;28;20061;-81
2021/07/16 10:18:36;;;;;;;14.45;8.63;;;;;;;25.02;49.62;100823.56;5056449;28;20049;-79
2021/07/16 10:21:10;;;;;;;16.15;8.18;;;;;;;24.92;49.23;100828.88;5056135;28;20394;-82
2021/07/16 10:23:39;;;;;;;16.05;8.35;;;;;;;24.95;49.62;100832.94;5061820;28;20059;-80
2021/07/16 10:26:10;;;;;;;13.85;8.35;;;;;;;25.02;49.40;100832.94;5076003;28;20370;-81
2021/07/16 10:28:41;;;;;;;14.85;8.40;;;;;;;25.28;49.25;100837.47;5075844;28;20413;-80
2021/07/16 10:31:33;;;;;;;14.60;8.00;;;;;;;25.81;47.53;100841.50;5076925;28;20048;-79
2021/07/16 10:34:04;;;;;;;14.85;7.60;;;;;;;26.33;46.09;100841.81;5075787;28;20055;-79
2021/07/16 10:36:42;;;;;;;15.77;7.40;;;;;;;26.71;45.48;100847.78;5076720;28;20049;-78
2021/07/16 10:39:11;;;;;;;13.73;8.18;;;;;;;27.08;44.53;100840.56;5074964;28;20056;-80
2021/07/16 10:41:40;;;;;;;14.75;8.60;;;;;;;27.13;43.89;100845.03;5073060;28;20059;-80
2021/07/16 10:44:10;;;;;;;11.48;7.75;;;;;;;27.03;43.92;100848.81;5095246;28;20048;-80
2021/07/16 10:46:43;;;;;;;13.38;7.50;;;;;;;27.10;44.11;100848.75;5096095;28;20477;-80
2021/07/16 10:49:12;;;;;;;16.38;8.38;;;;;;;27.16;43.58;100852.78;5089843;28;20059;-79
2021/07/16 10:51:41;;;;;;;13.55;8.20;;;;;;;27.21;44.25;100849.47;5092933;28;20055;-80
2021/07/16 10:54:10;;;;;;;;;;;;;;;27.30;43.90;100849.84;5092029;28;20052;-79
2021/07/16 10:56:39;;;;;;;12.02;6.85;;;;;;;27.36;43.68;100853.06;5095619;28;19923;-80
2021/07/16 10:59:07;;;;;;;9.90;7.05;;;;;;;27.47;43.07;100856.66;5090329;28;20361;-79
2021/07/16 11:01:39;;;;;;;12.73;6.85;;;;;;;27.29;43.22;100853.13;5095146;28;20054;-79
2021/07/16 11:04:08;;;;;;;11.93;7.15;;;;;;;27.26;43.34;100859.72;5091541;28;20579;-79
2021/07/16 11:06:52;;;;;;;11.75;6.57;;;;;;;27.32;43.12;100858.03;5092236;28;20048;-79
2021/07/16 11:09:39;;;;;;;10.30;5.57;;;;;;;27.35;43.68;100856.38;5092248;28;20062;-79
2021/07/16 11:12:27;;;;;;;14.32;6.05;;;;;;;27.21;43.48;100862.97;5095661;28;20473;-79
2021/07/16 11:14:57;;;;;;;15.35;5.63;;;;;;;27.25;43.31;100858.06;5095751;28;20055;-80
2021/07/16 11:17:31;;;;;;;14.05;6.57;;;;;;;27.38;42.71;100856.31;5091393;28;20063;-79
2021/07/16 11:20:21;;;;;;;13.35;6.30;;;;;;;27.84;42.43;100857.94;5095389;28;20508;-78
2021/07/16 11:23:00;;;;;;;10.05;6.05;;;;;;;28.33;40.95;100860.72;5095123;28;20051;-81
2021/07/16 11:25:30;;;;;;;14.98;5.90;;;;;;;28.61;40.33;100861.63;5050723;28;20045;-82